createdAt,value
2023-04-15T00:02:00.350Z,5.74
2023-04-15T00:05:03.560Z,5.75
2023-04-15T00:08:09.134Z,5.79
2023-04-15T00:11:12.519Z,5.72
2023-04-15T00:14:15.653Z,5.74
2023-04-15T00:17:19.108Z,5.65
2023-04-15T00:20:22.582Z,5.59
2023-04-15T00:23:27.503Z,5.53
2023-04-15T00:26:30.758Z,5.47
2023-04-15T00:29:34.925Z,5.56
2023-04-15T00:32:38.144Z,5.55
2023-04-15T00:35:41.600Z,5.53
2023-04-15T00:38:46.552Z,5.56
2023-04-15T00:41:50.187Z,5.48
2023-04-15T00:44:53.622Z,5.54
2023-04-15T00:47:59.436Z,5.49
2023-04-15T00:51:02.743Z,5.56
2023-04-15T00:54:07.918Z,5.56
2023-04-15T00:57:11.114Z,5.55
2023-04-15T01:00:14.959Z,5.61
2023-04-15T01:03:18.280Z,5.67
2023-04-15T01:06:22.245Z,5.62
2023-04-15T01:09:27.111Z,5.61
2023-04-15T01:12:30.484Z,5.65
2023-04-15T01:15:33.748Z,5.63
2023-04-15T01:18:37.792Z,5.61
2023-04-15T01:21:43.297Z,5.66
2023-04-15T01:24:56.180Z,5.72
2023-04-15T01:28:00.870Z,5.60
2023-04-15T01:31:11.610Z,5.63
2023-04-15T01:34:14.836Z,5.71
2023-04-15T01:37:36.760Z,5.59
2023-04-15T01:40:40.854Z,5.61
2023-04-15T01:43:45.701Z,5.53
2023-04-15T01:46:49.411Z,5.57
2023-04-15T01:49:52.647Z,5.66
2023-04-15T01:52:55.785Z,5.61
2023-04-15T01:55:58.917Z,5.60
2023-04-15T01:59:03.763Z,5.58
2023-04-15T02:02:07.040Z,5.55
2023-04-15T02:05:10.937Z,5.56
2023-04-15T02:08:14.448Z,5.60
2023-04-15T02:11:17.606Z,5.51
2023-04-15T02:14:22.162Z,5.56
2023-04-15T02:17:25.495Z,5.58
2023-04-15T02:20:30.359Z,5.58
2023-04-15T02:23:34.583Z,5.60
2023-04-15T02:26:37.705Z,5.68
2023-04-15T02:29:42.424Z,5.10
2023-04-15T02:32:45.772Z,5.58
2023-04-15T02:35:48.994Z,5.62
2023-04-15T02:38:52.189Z,5.60
2023-04-15T02:41:56.773Z,5.60
2023-04-15T02:45:01.206Z,5.59
2023-04-15T02:48:08.640Z,5.61
2023-04-15T02:51:16.767Z,5.45
2023-04-15T02:54:21.015Z,5.56
2023-04-15T02:57:24.266Z,5.57
2023-04-15T03:00:28.833Z,5.61
2023-04-15T03:03:32.052Z,5.54
2023-04-15T03:06:35.860Z,5.65
2023-04-15T03:09:40.381Z,5.58
2023-04-15T03:12:43.981Z,5.62
2023-04-15T03:15:53.716Z,5.64
2023-04-15T03:18:59.203Z,5.63
2023-04-15T03:22:02.734Z,5.63
2023-04-15T03:25:07.702Z,5.61
2023-04-15T03:28:10.881Z,5.53
2023-04-15T03:34:58.008Z,5.49
2023-04-15T03:38:01.422Z,5.45
2023-04-15T03:41:05.078Z,5.45
2023-04-15T03:44:08.162Z,5.48
2023-04-15T03:47:11.405Z,5.47
2023-04-15T03:50:16.177Z,5.47
2023-04-15T03:53:19.939Z,5.44
2023-04-15T03:56:23.059Z,5.51
2023-04-15T03:59:26.318Z,5.44
2023-04-15T04:02:29.547Z,5.46
2023-04-15T04:05:37.019Z,5.46
2023-04-15T04:08:40.284Z,5.56
2023-04-15T04:11:43.538Z,5.47
2023-04-15T04:14:46.976Z,5.52
2023-04-15T04:17:50.222Z,5.47
2023-04-15T04:20:54.918Z,5.48
2023-04-15T04:23:58.973Z,5.47
2023-04-15T04:27:02.128Z,5.50
2023-04-15T04:30:06.463Z,5.45
2023-04-15T04:33:09.613Z,5.49
2023-04-15T04:36:14.075Z,5.49
2023-04-15T04:39:17.149Z,5.54
2023-04-15T04:42:20.324Z,5.49
2023-04-15T04:45:23.589Z,5.54
2023-04-15T04:48:27.069Z,5.57
2023-04-15T04:51:32.448Z,5.62
2023-04-15T04:54:35.807Z,5.62
2023-04-15T04:57:39.608Z,5.64
2023-04-15T05:00:42.841Z,5.66
2023-04-15T05:03:46.094Z,5.69
2023-04-15T05:06:50.932Z,5.72
2023-04-15T05:09:54.068Z,5.19
2023-04-15T05:12:57.262Z,5.73
2023-04-15T05:16:00.463Z,5.78
2023-04-15T05:19:03.877Z,5.73
2023-04-15T05:22:08.740Z,5.85
2023-04-15T05:25:12.383Z,5.89
2023-04-15T05:28:15.578Z,5.89
2023-04-15T05:31:18.802Z,5.96
2023-04-15T05:34:22.362Z,5.99
2023-04-15T05:37:26.902Z,6.09
2023-04-15T05:40:34.193Z,6.02
2023-04-15T05:43:37.362Z,6.14
2023-04-15T05:46:40.510Z,6.20
2023-04-15T05:49:43.593Z,6.22
2023-04-15T05:52:48.372Z,6.34
2023-04-15T05:55:51.592Z,6.38
2023-04-15T05:58:54.797Z,6.29
2023-04-15T06:01:58.132Z,6.25
2023-04-15T06:05:01.569Z,6.31
2023-04-15T06:08:06.700Z,6.39
2023-04-15T06:11:09.820Z,6.42
2023-04-15T06:14:13.196Z,6.38
2023-04-15T06:17:18.447Z,6.40
2023-04-15T06:20:21.753Z,6.46
2023-04-15T06:23:27.014Z,6.47
2023-04-15T06:26:31.217Z,6.48
2023-04-15T06:29:34.315Z,6.52
2023-04-15T06:32:37.693Z,6.55
2023-04-15T06:35:41.034Z,6.69
2023-04-15T06:38:45.935Z,6.76
2023-04-15T06:41:49.112Z,6.87
2023-04-15T06:44:52.242Z,6.98
2023-04-15T06:47:55.428Z,7.01
2023-04-15T06:50:59.091Z,6.99
2023-04-15T06:54:05.844Z,7.04
2023-04-15T06:57:09.243Z,7.15
2023-04-15T07:00:13.645Z,7.21
2023-04-15T07:03:16.836Z,7.19
2023-04-15T07:06:20.095Z,7.25
2023-04-15T07:09:25.605Z,7.23
2023-04-15T07:12:28.776Z,7.08
2023-04-15T07:15:32.114Z,7.54
2023-04-15T07:18:35.439Z,7.67
2023-04-15T07:21:41.258Z,7.73
2023-04-15T07:24:47.126Z,7.69
2023-04-15T07:27:50.588Z,7.78
2023-04-15T07:30:53.898Z,7.87
2023-04-15T07:33:57.195Z,8.16
2023-04-15T07:37:00.348Z,8.18
2023-04-15T07:40:07.000Z,8.09
2023-04-15T07:43:10.145Z,8.40
2023-04-15T07:46:13.404Z,8.36
2023-04-15T07:49:16.530Z,8.31
2023-04-15T07:52:19.935Z,8.34
2023-04-15T07:55:25.363Z,8.22
2023-04-15T07:58:32.089Z,7.96
2023-04-15T08:01:35.229Z,7.80
2023-04-15T08:04:38.698Z,8.01
2023-04-15T08:07:42.451Z,7.95
2023-04-15T08:10:47.000Z,8.18
2023-04-15T08:13:50.177Z,8.25
2023-04-15T08:16:53.624Z,8.15
2023-04-15T08:19:57.187Z,8.16
2023-04-15T08:23:00.322Z,8.26
2023-04-15T08:26:04.793Z,8.25
2023-04-15T08:29:08.232Z,8.27
2023-04-15T08:32:11.398Z,7.99
2023-04-15T08:35:15.248Z,7.92
2023-04-15T08:38:18.850Z,8.01
2023-04-15T08:41:25.161Z,7.66
2023-04-15T08:44:30.927Z,7.80
2023-04-15T08:47:35.277Z,7.46
2023-04-15T08:50:38.725Z,7.44
2023-04-15T08:53:42.648Z,7.49
2023-04-15T08:56:47.479Z,6.94
2023-04-15T08:59:50.709Z,7.55
2023-04-15T09:02:54.336Z,7.49
2023-04-15T09:05:58.392Z,7.45
2023-04-15T09:09:01.719Z,7.59
2023-04-15T09:12:06.519Z,7.66
2023-04-15T09:15:13.152Z,7.68
2023-04-15T09:18:28.838Z,7.66
2023-04-15T09:21:33.780Z,7.56
2023-04-15T09:24:40.856Z,7.91
2023-04-15T09:27:50.388Z,7.70
2023-04-15T09:34:57.959Z,7.99
2023-04-15T09:38:05.763Z,7.93
2023-04-15T09:41:19.487Z,8.09
2023-04-15T09:44:26.211Z,7.96
2023-04-15T09:47:30.018Z,8.09
2023-04-15T09:50:42.671Z,7.92
2023-04-15T09:53:46.203Z,7.89
2023-04-15T09:56:49.865Z,7.76
2023-04-15T09:59:53.250Z,8.15
2023-04-15T10:02:56.743Z,7.99
2023-04-15T10:06:03.519Z,7.96
2023-04-15T10:09:09.754Z,7.72
2023-04-15T10:12:13.895Z,7.47
2023-04-15T10:15:18.139Z,7.37
2023-04-15T10:18:22.532Z,7.18
2023-04-15T10:21:29.021Z,7.19
2023-04-15T10:24:32.995Z,7.02
2023-04-15T10:27:37.161Z,7.15
2023-04-15T10:30:40.851Z,6.93
2023-04-15T10:33:45.412Z,6.98
2023-04-15T10:36:50.067Z,7.00
2023-04-15T10:39:53.240Z,6.98
2023-04-15T10:42:57.110Z,7.08
2023-04-15T10:46:00.256Z,7.21
2023-04-15T10:49:08.997Z,7.37
2023-04-15T10:52:15.403Z,7.53
2023-04-15T10:55:21.855Z,7.34
2023-04-15T10:58:25.755Z,7.21
2023-04-15T11:01:54.132Z,7.28
2023-04-15T11:04:58.669Z,7.26
2023-04-15T11:08:03.317Z,7.06
2023-04-15T11:11:07.350Z,7.06
2023-04-15T11:14:16.463Z,7.28
2023-04-15T11:17:29.805Z,7.51
2023-04-15T11:20:33.329Z,7.48
2023-04-15T11:23:44.161Z,7.69
2023-04-15T11:26:47.351Z,7.45
2023-04-15T11:29:50.719Z,7.90
2023-04-15T11:32:55.314Z,7.86
2023-04-15T11:35:58.760Z,7.68
2023-04-15T11:39:03.755Z,7.56
2023-04-15T11:42:18.047Z,7.50
2023-04-15T11:45:21.210Z,7.44
2023-04-15T11:48:25.832Z,7.42
2023-04-15T11:51:33.594Z,7.43
2023-04-15T11:54:38.237Z,7.52
2023-04-15T11:57:41.174Z,7.50
2023-04-15T12:00:48.728Z,7.47
2023-04-15T12:03:52.115Z,7.64
2023-04-15T12:06:55.363Z,7.72
2023-04-15T12:09:59.877Z,7.72
2023-04-15T12:13:07.557Z,7.54
2023-04-15T12:16:10.833Z,7.68
2023-04-15T12:19:15.865Z,7.88
2023-04-15T12:22:20.067Z,7.53
2023-04-15T12:25:36.327Z,7.46
2023-04-15T12:28:41.688Z,7.71
2023-04-15T12:31:50.762Z,7.56
2023-04-15T12:34:55.246Z,7.49
2023-04-15T12:37:58.477Z,7.66
2023-04-15T12:41:02.984Z,7.65
2023-04-15T12:44:06.558Z,7.68
2023-04-15T12:47:10.926Z,7.69
2023-04-15T12:50:14.285Z,7.71
2023-04-15T12:53:17.536Z,7.76
2023-04-15T12:56:22.455Z,7.90
2023-04-15T12:59:25.892Z,7.96
2023-04-15T13:02:29.423Z,8.07
2023-04-15T13:05:32.893Z,8.11
2023-04-15T13:08:38.546Z,8.14
2023-04-15T13:11:45.345Z,8.18
2023-04-15T13:14:48.654Z,8.09
2023-04-15T13:17:51.810Z,8.01
2023-04-15T13:20:56.501Z,8.04
2023-04-15T13:24:00.572Z,7.86
2023-04-15T13:27:05.303Z,7.84
2023-04-15T13:30:09.504Z,7.81
2023-04-15T13:33:12.914Z,7.80
2023-04-15T13:36:16.357Z,7.85
2023-04-15T13:39:19.511Z,7.88
2023-04-15T13:42:24.210Z,7.93
2023-04-15T13:45:27.706Z,8.05
2023-04-15T13:48:31.024Z,7.91
2023-04-15T13:51:36.277Z,8.04
2023-04-15T13:54:39.420Z,8.06
2023-04-15T13:57:44.039Z,8.07
2023-04-15T14:00:47.292Z,8.00
2023-04-15T14:03:50.637Z,8.01
2023-04-15T14:06:54.005Z,7.95
2023-04-15T14:09:57.308Z,7.74
2023-04-15T14:13:01.803Z,7.86
2023-04-15T14:16:05.473Z,7.78
2023-04-15T14:19:08.785Z,7.84
2023-04-15T14:22:11.917Z,7.74
2023-04-15T14:25:26.678Z,7.72
2023-04-15T14:28:35.281Z,7.59
2023-04-15T14:31:38.702Z,7.43
2023-04-15T14:34:44.291Z,7.47
2023-04-15T14:37:47.565Z,7.44
2023-04-15T14:40:50.962Z,7.55
2023-04-15T14:43:55.465Z,7.38
2023-04-15T14:46:58.691Z,7.40
2023-04-15T14:50:02.368Z,7.45
2023-04-15T14:53:05.893Z,7.37
2023-04-15T14:56:09.131Z,7.33
2023-04-15T14:59:13.619Z,7.33
2023-04-15T15:02:31.684Z,7.27
2023-04-15T15:05:40.736Z,7.18
2023-04-15T15:08:43.973Z,7.32
2023-04-15T15:11:47.085Z,7.33
2023-04-15T15:14:51.837Z,7.37
2023-04-15T15:17:55.191Z,7.38
2023-04-15T15:20:58.617Z,7.26
2023-04-15T15:24:01.844Z,7.31
2023-04-15T15:27:05.087Z,7.20
2023-04-15T15:30:11.255Z,7.26
2023-04-15T15:34:57.699Z,7.15
2023-04-15T15:38:01.592Z,7.20
2023-04-15T15:41:05.412Z,7.23
2023-04-15T15:44:09.195Z,7.14
2023-04-15T15:47:12.814Z,7.15
2023-04-15T15:50:17.531Z,7.13
2023-04-15T15:53:24.152Z,7.00
2023-04-15T15:56:27.611Z,7.04
2023-04-15T15:59:30.868Z,7.03
2023-04-15T16:02:59.722Z,7.00
2023-04-15T16:05:58.607Z,7.00
2023-04-15T16:09:01.793Z,6.93
2023-04-15T16:12:05.474Z,6.88
2023-04-15T16:15:11.857Z,6.93
2023-04-15T16:18:14.980Z,6.80
2023-04-15T16:21:20.230Z,6.89
2023-04-15T16:24:23.462Z,6.84
2023-04-15T16:27:26.940Z,6.84
2023-04-15T16:30:30.380Z,6.83
2023-04-15T16:33:33.604Z,6.80
2023-04-15T16:36:40.331Z,6.74
2023-04-15T16:39:43.821Z,6.83
2023-04-15T16:42:47.011Z,6.77
2023-04-15T16:45:51.425Z,6.79
2023-04-15T16:48:55.201Z,6.81
2023-04-15T16:51:59.781Z,6.83
2023-04-15T16:55:02.916Z,6.82
2023-04-15T16:58:08.356Z,6.88
2023-04-15T17:01:11.971Z,6.86
2023-04-15T17:04:15.152Z,6.83
2023-04-15T17:07:19.638Z,6.86
2023-04-15T17:10:22.868Z,6.87
2023-04-15T17:13:26.562Z,6.85
2023-04-15T17:16:29.919Z,6.88
2023-04-15T17:19:33.630Z,6.88
2023-04-15T17:22:44.255Z,6.87
2023-04-15T17:25:47.649Z,6.95
2023-04-15T17:28:51.271Z,6.89
2023-04-15T17:32:03.703Z,6.82
2023-04-15T17:35:26.822Z,6.83
2023-04-15T17:38:51.285Z,6.86
2023-04-15T17:42:15.591Z,6.75
2023-04-15T17:45:38.850Z,6.85
2023-04-15T17:49:03.345Z,6.86
2023-04-15T17:52:26.779Z,6.93
2023-04-15T17:55:53.084Z,6.84
2023-04-15T17:59:16.662Z,6.89
2023-04-15T18:02:40.162Z,6.88
2023-04-15T18:06:03.512Z,6.90
2023-04-15T18:09:27.127Z,6.85
2023-04-15T18:12:51.571Z,6.87
2023-04-15T18:16:14.708Z,6.88
2023-04-15T18:19:39.880Z,6.82
2023-04-15T18:22:43.935Z,6.82
2023-04-15T18:25:47.112Z,6.89
2023-04-15T18:28:51.681Z,6.87
2023-04-15T18:31:55.124Z,6.87
2023-04-15T18:34:58.289Z,6.89
2023-04-15T18:38:01.918Z,6.86
2023-04-15T18:41:05.404Z,6.90
2023-04-15T18:44:10.042Z,6.86
2023-04-15T18:47:13.342Z,6.83
2023-04-15T18:50:16.819Z,6.90
2023-04-15T18:53:19.985Z,6.83
2023-04-15T18:56:23.263Z,6.84
2023-04-15T18:59:30.340Z,6.90
2023-04-15T19:02:34.215Z,6.89
2023-04-15T19:05:37.755Z,6.84
2023-04-15T19:08:40.911Z,6.91
2023-04-15T19:11:44.546Z,6.91
2023-04-15T19:14:49.073Z,6.71
2023-04-15T19:17:52.248Z,6.91
2023-04-15T19:20:55.940Z,6.83
2023-04-15T19:23:59.265Z,6.87
2023-04-15T19:27:02.635Z,6.84
2023-04-15T19:30:08.829Z,6.85
2023-04-15T19:33:12.305Z,6.83
2023-04-15T19:36:15.791Z,6.76
2023-04-15T19:39:19.586Z,6.76
2023-04-15T19:42:22.780Z,6.71
2023-04-15T19:45:27.396Z,6.67
2023-04-15T19:48:30.780Z,6.77
2023-04-15T19:51:34.052Z,6.68
2023-04-15T19:54:37.317Z,6.70
2023-04-15T19:57:40.829Z,6.73
2023-04-15T20:00:45.387Z,6.67
2023-04-15T20:03:49.210Z,6.67
2023-04-15T20:06:52.515Z,6.18
2023-04-15T20:09:55.985Z,6.69
2023-04-15T20:12:59.281Z,6.46
2023-04-15T20:16:05.790Z,6.67
2023-04-15T20:19:09.697Z,6.64
2023-04-15T20:22:12.936Z,6.67
2023-04-15T20:25:16.256Z,6.58
2023-04-15T20:28:19.489Z,6.64
2023-04-15T20:31:24.037Z,6.60
2023-04-15T20:34:27.143Z,6.65
2023-04-15T20:37:30.819Z,6.59
2023-04-15T20:40:34.101Z,6.64
2023-04-15T20:43:37.308Z,6.70
2023-04-15T20:46:41.830Z,6.60
2023-04-15T20:49:45.675Z,6.55
2023-04-15T20:52:48.788Z,6.59
2023-04-15T20:55:52.066Z,6.54
2023-04-15T20:58:55.396Z,6.54
2023-04-15T21:01:59.952Z,6.52
2023-04-15T21:05:03.240Z,6.54
2023-04-15T21:08:06.980Z,6.53
2023-04-15T21:11:10.175Z,6.58
2023-04-15T21:14:13.305Z,6.58
2023-04-15T21:17:17.790Z,6.60
2023-04-15T21:20:21.258Z,6.54
2023-04-15T21:23:24.577Z,6.53
2023-04-15T21:26:27.778Z,6.57
2023-04-15T21:29:31.037Z,6.51
2023-04-15T21:34:57.575Z,6.50
2023-04-15T21:38:00.773Z,6.52
2023-04-15T21:41:06.497Z,6.58
2023-04-15T21:44:09.614Z,6.58
2023-04-15T21:47:12.806Z,6.57
2023-04-15T21:50:17.590Z,6.54
2023-04-15T21:53:20.704Z,6.64
2023-04-15T21:56:24.672Z,6.54
2023-04-15T21:59:27.964Z,6.53
2023-04-15T22:02:31.216Z,6.63
2023-04-15T22:05:35.985Z,6.53
2023-04-15T22:08:52.553Z,6.64
2023-04-15T22:12:00.976Z,6.57
2023-04-15T22:15:04.426Z,6.59
2023-04-15T22:18:08.148Z,6.59
2023-04-15T22:21:14.086Z,6.54
2023-04-15T22:24:31.649Z,6.59
2023-04-15T22:27:40.572Z,6.63
2023-04-15T22:30:43.817Z,6.63
2023-04-15T22:33:46.950Z,6.61
2023-04-15T22:36:52.196Z,6.63
2023-04-15T22:39:55.422Z,6.62
2023-04-15T22:42:58.612Z,6.65
2023-04-15T22:46:01.894Z,6.61
2023-04-15T22:49:06.474Z,6.63
2023-04-15T22:52:14.572Z,6.68
2023-04-15T22:55:23.549Z,6.64
2023-04-15T22:58:26.757Z,6.64
2023-04-15T23:01:31.866Z,6.67
2023-04-15T23:04:35.161Z,6.68
2023-04-15T23:07:40.674Z,6.66
2023-04-15T23:10:44.593Z,6.69
2023-04-15T23:13:47.807Z,6.66
2023-04-15T23:16:51.006Z,6.68
2023-04-15T23:19:54.160Z,6.67
2023-04-15T23:22:58.676Z,6.66
2023-04-15T23:26:03.829Z,6.72
2023-04-15T23:29:07.298Z,6.74
2023-04-15T23:32:11.000Z,6.71
2023-04-15T23:35:14.108Z,6.70
2023-04-15T23:38:18.647Z,6.51
2023-04-15T23:41:22.586Z,6.69
2023-04-15T23:44:26.054Z,6.68
2023-04-15T23:47:29.202Z,6.67
2023-04-15T23:50:32.436Z,6.67
2023-04-15T23:53:36.910Z,6.68
2023-04-15T23:56:40.052Z,6.69
2023-04-15T23:59:43.169Z,6.68
